sensor_id;sensor_type;location;lat;lon;timestamp;P1;durP1;ratioP1;P2;durP2;ratioP2
33730;SDS011;22931;48.636;9.000;2023-12-22T01:05:53;4.35;;;1.02;;
33730;SDS011;22931;48.636;9.000;2023-12-22T01:11:01;1.48;;;0.80;;
33730;SDS011;22931;48.636;9.000;2023-12-22T01:16:09;1.13;;;0.98;;
33730;SDS011;22931;48.636;9.000;2023-12-22T01:21:19;0.90;;;0.60;;
33730;SDS011;22931;48.636;9.000;2023-12-22T01:26:27;3.43;;;0.70;;
33730;SDS011;22931;48.636;9.000;2023-12-22T01:31:34;0.50;;;0.50;;
33730;SDS011;22931;48.636;9.000;2023-12-22T01:36:45;1.30;;;0.60;;
33730;SDS011;22931;48.636;9.000;2023-12-22T01:41:54;0.73;;;0.63;;
33730;SDS011;22931;48.636;9.000;2023-12-22T01:47:02;0.52;;;0.52;;
33730;SDS011;22931;48.636;9.000;2023-12-22T01:52:12;0.70;;;0.70;;
33730;SDS011;22931;48.636;9.000;2023-12-22T01:57:20;0.43;;;0.43;;
33730;SDS011;22931;48.636;9.000;2023-12-22T02:02:28;0.50;;;0.43;;
33730;SDS011;22931;48.636;9.000;2023-12-22T02:07:39;0.40;;;0.40;;
33730;SDS011;22931;48.636;9.000;2023-12-22T02:12:49;1.13;;;0.60;;
33730;SDS011;22931;48.636;9.000;2023-12-22T02:17:59;0.85;;;0.52;;
33730;SDS011;22931;48.636;9.000;2023-12-22T02:23:12;0.95;;;0.68;;
33730;SDS011;22931;48.636;9.000;2023-12-22T02:28:20;2.13;;;0.70;;
33730;SDS011;22931;48.636;9.000;2023-12-22T02:33:30;0.85;;;0.77;;
33730;SDS011;22931;48.636;9.000;2023-12-22T02:38:44;2.25;;;0.80;;
33730;SDS011;22931;48.636;9.000;2023-12-22T02:43:53;1.27;;;0.82;;
33730;SDS011;22931;48.636;9.000;2023-12-22T02:49:01;2.55;;;1.10;;
33730;SDS011;22931;48.636;9.000;2023-12-22T02:54:11;0.90;;;0.80;;
33730;SDS011;22931;48.636;9.000;2023-12-22T02:59:19;0.90;;;0.90;;
33730;SDS011;22931;48.636;9.000;2023-12-22T03:04:26;2.40;;;0.95;;
33730;SDS011;22931;48.636;9.000;2023-12-22T03:09:36;0.88;;;0.70;;
33730;SDS011;22931;48.636;9.000;2023-12-22T03:14:44;0.83;;;0.80;;
33730;SDS011;22931;48.636;9.000;2023-12-22T03:19:52;1.17;;;0.90;;
33730;SDS011;22931;48.636;9.000;2023-12-22T03:25:02;0.68;;;0.68;;
33730;SDS011;22931;48.636;9.000;2023-12-22T03:30:10;1.10;;;0.68;;
33730;SDS011;22931;48.636;9.000;2023-12-22T03:35:20;1.60;;;0.70;;
33730;SDS011;22931;48.636;9.000;2023-12-22T03:40:30;2.00;;;0.60;;
33730;SDS011;22931;48.636;9.000;2023-12-22T03:45:38;0.57;;;0.57;;
33730;SDS011;22931;48.636;9.000;2023-12-22T03:50:45;1.63;;;0.80;;
33730;SDS011;22931;48.636;9.000;2023-12-22T03:55:56;2.95;;;0.82;;
33730;SDS011;22931;48.636;9.000;2023-12-22T04:01:03;1.47;;;0.77;;
33730;SDS011;22931;48.636;9.000;2023-12-22T04:06:12;1.92;;;0.88;;
33730;SDS011;22931;48.636;9.000;2023-12-22T04:11:22;2.03;;;0.90;;
33730;SDS011;22931;48.636;9.000;2023-12-22T04:16:30;1.73;;;1.00;;
33730;SDS011;22931;48.636;9.000;2023-12-22T04:21:38;3.05;;;1.25;;
33730;SDS011;22931;48.636;9.000;2023-12-22T04:26:48;5.18;;;1.60;;
33730;SDS011;22931;48.636;9.000;2023-12-22T04:31:56;1.53;;;0.90;;
33730;SDS011;22931;48.636;9.000;2023-12-22T04:37:03;5.28;;;1.13;;
33730;SDS011;22931;48.636;9.000;2023-12-22T04:42:13;1.13;;;0.98;;
33730;SDS011;22931;48.636;9.000;2023-12-22T04:47:21;1.30;;;1.07;;
33730;SDS011;22931;48.636;9.000;2023-12-22T04:52:28;2.53;;;0.98;;
33730;SDS011;22931;48.636;9.000;2023-12-22T04:57:39;0.75;;;0.60;;
33730;SDS011;22931;48.636;9.000;2023-12-22T05:02:47;3.65;;;0.82;;
33730;SDS011;22931;48.636;9.000;2023-12-22T05:07:54;1.45;;;0.85;;
33730;SDS011;22931;48.636;9.000;2023-12-22T05:13:05;2.50;;;0.77;;
33730;SDS011;22931;48.636;9.000;2023-12-22T05:18:13;1.97;;;0.83;;
33730;SDS011;22931;48.636;9.000;2023-12-22T05:23:20;3.88;;;1.00;;
33730;SDS011;22931;48.636;9.000;2023-12-22T05:28:31;3.13;;;1.25;;
33730;SDS011;22931;48.636;9.000;2023-12-22T05:33:39;1.55;;;1.45;;
33730;SDS011;22931;48.636;9.000;2023-12-22T05:38:46;3.33;;;1.00;;
33730;SDS011;22931;48.636;9.000;2023-12-22T05:43:57;3.22;;;1.00;;
33730;SDS011;22931;48.636;9.000;2023-12-22T05:54:13;2.92;;;1.10;;
33730;SDS011;22931;48.636;9.000;2023-12-22T05:59:24;1.90;;;0.73;;
33730;SDS011;22931;48.636;9.000;2023-12-22T06:04:32;1.35;;;0.80;;
33730;SDS011;22931;48.636;9.000;2023-12-22T06:09:40;5.15;;;1.02;;
33730;SDS011;22931;48.636;9.000;2023-12-22T06:14:50;3.42;;;1.20;;
33730;SDS011;22931;48.636;9.000;2023-12-22T06:19:57;5.43;;;1.17;;
33730;SDS011;22931;48.636;9.000;2023-12-22T06:25:05;1.55;;;1.00;;
33730;SDS011;22931;48.636;9.000;2023-12-22T06:30:16;2.22;;;1.20;;
33730;SDS011;22931;48.636;9.000;2023-12-22T06:35:24;2.92;;;1.00;;
33730;SDS011;22931;48.636;9.000;2023-12-22T06:40:32;3.65;;;1.30;;
33730;SDS011;22931;48.636;9.000;2023-12-22T06:45:43;2.30;;;0.90;;
33730;SDS011;22931;48.636;9.000;2023-12-22T06:50:52;3.47;;;1.27;;
33730;SDS011;22931;48.636;9.000;2023-12-22T06:56:00;3.58;;;1.33;;
33730;SDS011;22931;48.636;9.000;2023-12-22T07:01:10;2.05;;;0.85;;
33730;SDS011;22931;48.636;9.000;2023-12-22T07:06:18;2.53;;;1.13;;
33730;SDS011;22931;48.636;9.000;2023-12-22T07:11:26;3.35;;;1.00;;
33730;SDS011;22931;48.636;9.000;2023-12-22T07:16:44;2.35;;;1.10;;
33730;SDS011;22931;48.636;9.000;2023-12-22T07:21:52;2.45;;;1.13;;
33730;SDS011;22931;48.636;9.000;2023-12-22T07:27:00;3.25;;;1.15;;
33730;SDS011;22931;48.636;9.000;2023-12-22T07:32:10;3.08;;;1.20;;
33730;SDS011;22931;48.636;9.000;2023-12-22T07:37:19;3.75;;;1.20;;
33730;SDS011;22931;48.636;9.000;2023-12-22T07:42:28;2.83;;;0.98;;
33730;SDS011;22931;48.636;9.000;2023-12-22T07:47:39;2.47;;;0.98;;
33730;SDS011;22931;48.636;9.000;2023-12-22T07:52:47;4.15;;;1.52;;
33730;SDS011;22931;48.636;9.000;2023-12-22T07:57:55;6.05;;;1.45;;
